Terminal Aerodrome Forecast
Issued by NWS Mt. Holly, NJ

Home | Current Version | Previous Version | Text Only | Print | Product List | Glossary On
Versions: 1 2 3 4 5 6 7 8 9 10 11 12 13 14 15 16 17 18 19 20 21 22 23 24 25 26 27 28 29 30 31 32 33 34
000
FTAK31 PANC 190656 AAA
TAFABE
TAF AMD
PABE 190656Z 1907/2006 30011KT P6SM SCT015 BKN040
      TEMPO 1907/1911 BKN015
     FM191200 29009KT 6SM BR BKN100
     FM192100 31007KT P6SM FEW015 BKN040=

USA.gov is the U.S. government's official web portal to all federal, state and local government web resources and services.